sensor_id;sensor_type;location;lat;lon;timestamp;pressure;altitude;pressure_sealevel;temperature;humidity
36242;BME280;22283;42.748;12.732;2022-12-29T00:01:53;98964.03;;;6.42;100.00
36242;BME280;22283;42.748;12.732;2022-12-29T00:06:55;98959.69;;;6.61;100.00
36242;BME280;22283;42.748;12.732;2022-12-29T00:11:56;98960.00;;;6.54;100.00
36242;BME280;22283;42.748;12.732;2022-12-29T00:16:57;98944.25;;;6.73;100.00
36242;BME280;22283;42.748;12.732;2022-12-29T00:21:58;98958.88;;;6.99;100.00
36242;BME280;22283;42.748;12.732;2022-12-29T00:27:17;98956.03;;;7.03;100.00
36242;BME280;22283;42.748;12.732;2022-12-29T00:32:36;98947.34;;;6.82;100.00
36242;BME280;22283;42.748;12.732;2022-12-29T00:37:59;98955.81;;;6.89;100.00
36242;BME280;22283;42.748;12.732;2022-12-29T00:43:20;98947.91;;;6.70;100.00
36242;BME280;22283;42.748;12.732;2022-12-29T00:48:40;98946.03;;;6.72;100.00
36242;BME280;22283;42.748;12.732;2022-12-29T00:53:59;98949.97;;;6.82;100.00
36242;BME280;22283;42.748;12.732;2022-12-29T00:59:05;98958.88;;;6.99;100.00
36242;BME280;22283;42.748;12.732;2022-12-29T01:04:07;98947.63;;;6.95;100.00
36242;BME280;22283;42.748;12.732;2022-12-29T01:09:09;98947.22;;;6.85;100.00
36242;BME280;22283;42.748;12.732;2022-12-29T01:14:28;98946.69;;;6.77;100.00
36242;BME280;22283;42.748;12.732;2022-12-29T01:19:31;98943.03;;;6.61;100.00
36242;BME280;22283;42.748;12.732;2022-12-29T01:24:31;98948.63;;;6.74;100.00
36242;BME280;22283;42.748;12.732;2022-12-29T01:29:32;98937.75;;;6.61;100.00
36242;BME280;22283;42.748;12.732;2022-12-29T01:34:32;98941.06;;;6.66;100.00
36242;BME280;22283;42.748;12.732;2022-12-29T01:39:33;98932.28;;;6.47;100.00
36242;BME280;22283;42.748;12.732;2022-12-29T01:44:57;98935.13;;;6.22;100.00
36242;BME280;22283;42.748;12.732;2022-12-29T01:50:03;98942.50;;;6.12;100.00
36242;BME280;22283;42.748;12.732;2022-12-29T01:55:06;98927.41;;;6.17;100.00
36242;BME280;22283;42.748;12.732;2022-12-29T02:00:10;98926.09;;;6.07;100.00
36242;BME280;22283;42.748;12.732;2022-12-29T02:05:38;98922.66;;;6.05;100.00
36242;BME280;22283;42.748;12.732;2022-12-29T02:10:42;98912.47;;;6.18;100.00
36242;BME280;22283;42.748;12.732;2022-12-29T02:16:09;98924.06;;;6.54;100.00
36242;BME280;22283;42.748;12.732;2022-12-29T02:32:06;98921.75;;;6.86;100.00
36242;BME280;22283;42.748;12.732;2022-12-29T02:37:20;98922.75;;;6.83;100.00
36242;BME280;22283;42.748;12.732;2022-12-29T02:42:40;98920.31;;;6.79;100.00
36242;BME280;22283;42.748;12.732;2022-12-29T02:53:09;98914.94;;;6.82;100.00
36242;BME280;22283;42.748;12.732;2022-12-29T02:58:29;98914.22;;;6.78;100.00
36242;BME280;22283;42.748;12.732;2022-12-29T03:14:55;98917.53;;;6.63;100.00
36242;BME280;22283;42.748;12.732;2022-12-29T03:20:34;98925.19;;;7.07;100.00
36242;BME280;22283;42.748;12.732;2022-12-29T03:25:43;98911.63;;;7.52;100.00
36242;BME280;22283;42.748;12.732;2022-12-29T03:30:46;98909.69;;;7.92;100.00
36242;BME280;22283;42.748;12.732;2022-12-29T03:35:50;98917.81;;;8.22;100.00
36242;BME280;22283;42.748;12.732;2022-12-29T03:40:56;98917.06;;;8.37;100.00
36242;BME280;22283;42.748;12.732;2022-12-29T03:46:00;98918.59;;;8.42;100.00
36242;BME280;22283;42.748;12.732;2022-12-29T03:51:01;98918.75;;;8.38;100.00
36242;BME280;22283;42.748;12.732;2022-12-29T03:56:02;98909.84;;;8.24;100.00
36242;BME280;22283;42.748;12.732;2022-12-29T04:01:03;98910.84;;;8.21;100.00
36242;BME280;22283;42.748;12.732;2022-12-29T04:06:06;98915.97;;;8.24;100.00
36242;BME280;22283;42.748;12.732;2022-12-29T04:11:13;98906.34;;;8.41;100.00
36242;BME280;22283;42.748;12.732;2022-12-29T04:16:15;98901.81;;;8.60;100.00
36242;BME280;22283;42.748;12.732;2022-12-29T04:21:16;98907.28;;;8.40;100.00
36242;BME280;22283;42.748;12.732;2022-12-29T04:26:17;98917.06;;;8.37;100.00
36242;BME280;22283;42.748;12.732;2022-12-29T04:31:38;98924.31;;;8.32;100.00
36242;BME280;22283;42.748;12.732;2022-12-29T04:36:40;98919.69;;;8.37;100.00
36242;BME280;22283;42.748;12.732;2022-12-29T04:41:41;98923.88;;;8.42;100.00
36242;BME280;22283;42.748;12.732;2022-12-29T04:46:45;98920.00;;;8.49;100.00
36242;BME280;22283;42.748;12.732;2022-12-29T04:51:56;98928.44;;;8.55;100.00
36242;BME280;22283;42.748;12.732;2022-12-29T04:56:57;98935.34;;;8.58;100.00
36242;BME280;22283;42.748;12.732;2022-12-29T05:01:58;98932.56;;;8.44;100.00
36242;BME280;22283;42.748;12.732;2022-12-29T05:06:59;98929.31;;;8.38;100.00
36242;BME280;22283;42.748;12.732;2022-12-29T05:12:00;98938.53;;;8.12;100.00
36242;BME280;22283;42.748;12.732;2022-12-29T05:17:00;98940.88;;;8.00;100.00
36242;BME280;22283;42.748;12.732;2022-12-29T05:22:01;98936.03;;;7.92;100.00
36242;BME280;22283;42.748;12.732;2022-12-29T05:27:06;98938.00;;;7.87;100.00
36242;BME280;22283;42.748;12.732;2022-12-29T05:32:31;98938.19;;;7.84;100.00
36242;BME280;22283;42.748;12.732;2022-12-29T05:37:32;98941.44;;;7.89;100.00
36242;BME280;22283;42.748;12.732;2022-12-29T05:42:32;98948.78;;;7.82;100.00
36242;BME280;22283;42.748;12.732;2022-12-29T05:47:59;98945.97;;;7.68;100.00
36242;BME280;22283;42.748;12.732;2022-12-29T05:53:02;98943.50;;;7.65;100.00
36242;BME280;22283;42.748;12.732;2022-12-29T05:58:04;98958.00;;;7.55;100.00
36242;BME280;22283;42.748;12.732;2022-12-29T06:03:05;98963.41;;;7.52;100.00
36242;BME280;22283;42.748;12.732;2022-12-29T06:08:05;98958.91;;;7.36;100.00
36242;BME280;22283;42.748;12.732;2022-12-29T06:13:07;98960.75;;;7.34;100.00
36242;BME280;22283;42.748;12.732;2022-12-29T06:18:11;98961.38;;;7.39;100.00
36242;BME280;22283;42.748;12.732;2022-12-29T06:23:11;98958.72;;;7.39;100.00
36242;BME280;22283;42.748;12.732;2022-12-29T06:28:14;98953.78;;;7.52;100.00
36242;BME280;22283;42.748;12.732;2022-12-29T06:33:15;98956.84;;;7.79;100.00
36242;BME280;22283;42.748;12.732;2022-12-29T06:38:16;98950.06;;;8.10;100.00
36242;BME280;22283;42.748;12.732;2022-12-29T06:43:16;98946.75;;;8.24;100.00
36242;BME280;22283;42.748;12.732;2022-12-29T06:48:34;98957.47;;;8.38;100.00
36242;BME280;22283;42.748;12.732;2022-12-29T06:53:35;98955.03;;;8.51;100.00
36242;BME280;22283;42.748;12.732;2022-12-29T06:58:35;98943.19;;;8.59;100.00
36242;BME280;22283;42.748;12.732;2022-12-29T07:03:36;98952.69;;;8.62;100.00
36242;BME280;22283;42.748;12.732;2022-12-29T07:08:37;98963.34;;;8.60;100.00
36242;BME280;22283;42.748;12.732;2022-12-29T07:13:38;98961.06;;;8.70;100.00
36242;BME280;22283;42.748;12.732;2022-12-29T07:18:39;98962.69;;;8.73;100.00
36242;BME280;22283;42.748;12.732;2022-12-29T07:23:40;98962.06;;;8.85;100.00
36242;BME280;22283;42.748;12.732;2022-12-29T07:28:41;98964.72;;;9.01;100.00
36242;BME280;22283;42.748;12.732;2022-12-29T07:33:42;98970.72;;;9.20;100.00
36242;BME280;22283;42.748;12.732;2022-12-29T07:38:43;98967.84;;;9.41;100.00
36242;BME280;22283;42.748;12.732;2022-12-29T07:43:47;98978.25;;;9.59;100.00
36242;BME280;22283;42.748;12.732;2022-12-29T07:49:26;98968.44;;;9.61;100.00
36242;BME280;22283;42.748;12.732;2022-12-29T07:54:27;98972.28;;;9.72;100.00
36242;BME280;22283;42.748;12.732;2022-12-29T07:59:28;98971.28;;;9.74;100.00
36242;BME280;22283;42.748;12.732;2022-12-29T08:04:30;98968.50;;;9.92;100.00
36242;BME280;22283;42.748;12.732;2022-12-29T08:09:30;98971.19;;;10.22;99.39
36242;BME280;22283;42.748;12.732;2022-12-29T08:14:31;98982.63;;;10.22;98.59
36242;BME280;22283;42.748;12.732;2022-12-29T08:19:32;98978.06;;;10.24;97.23
36242;BME280;22283;42.748;12.732;2022-12-29T08:24:36;98988.91;;;10.36;97.84
36242;BME280;22283;42.748;12.732;2022-12-29T08:29:36;98991.06;;;10.59;96.90
36242;BME280;22283;42.748;12.732;2022-12-29T08:34:37;98983.63;;;10.80;94.12
36242;BME280;22283;42.748;12.732;2022-12-29T08:39:38;99000.19;;;10.98;93.33
36242;BME280;22283;42.748;12.732;2022-12-29T08:44:39;98993.03;;;11.14;91.11
36242;BME280;22283;42.748;12.732;2022-12-29T08:49:39;98993.59;;;11.33;89.59
36242;BME280;22283;42.748;12.732;2022-12-29T08:54:40;98979.56;;;11.46;88.91
36242;BME280;22283;42.748;12.732;2022-12-29T08:59:40;98995.63;;;11.57;87.86
36242;BME280;22283;42.748;12.732;2022-12-29T09:04:44;98996.16;;;11.76;86.18
36242;BME280;22283;42.748;12.732;2022-12-29T09:09:44;98997.69;;;11.80;85.09
36242;BME280;22283;42.748;12.732;2022-12-29T09:14:48;98998.59;;;11.94;84.68
36242;BME280;22283;42.748;12.732;2022-12-29T09:19:49;98996.50;;;11.99;84.11
36242;BME280;22283;42.748;12.732;2022-12-29T09:24:49;98999.00;;;12.15;84.15
36242;BME280;22283;42.748;12.732;2022-12-29T09:29:50;99003.50;;;12.27;82.95
36242;BME280;22283;42.748;12.732;2022-12-29T09:34:51;98991.53;;;12.34;81.39
36242;BME280;22283;42.748;12.732;2022-12-29T09:39:51;98998.25;;;12.40;81.00
36242;BME280;22283;42.748;12.732;2022-12-29T09:45:24;98991.47;;;12.48;80.70
36242;BME280;22283;42.748;12.732;2022-12-29T09:50:30;98987.34;;;12.57;81.04
36242;BME280;22283;42.748;12.732;2022-12-29T09:55:39;99000.94;;;12.78;81.17
36242;BME280;22283;42.748;12.732;2022-12-29T10:00:56;98990.75;;;12.97;80.53
36242;BME280;22283;42.748;12.732;2022-12-29T10:06:08;98979.28;;;13.10;79.31
36242;BME280;22283;42.748;12.732;2022-12-29T10:17:01;98970.31;;;13.49;76.96
36242;BME280;22283;42.748;12.732;2022-12-29T10:27:23;98974.03;;;13.59;76.28
36242;BME280;22283;42.748;12.732;2022-12-29T10:32:35;98968.41;;;13.51;75.99
36242;BME280;22283;42.748;12.732;2022-12-29T10:37:52;98966.69;;;13.50;77.35
36242;BME280;22283;42.748;12.732;2022-12-29T10:42:57;98960.56;;;13.37;77.13
36242;BME280;22283;42.748;12.732;2022-12-29T10:48:35;98955.81;;;13.66;75.90
36242;BME280;22283;42.748;12.732;2022-12-29T10:53:44;98947.00;;;13.89;75.73
36242;BME280;22283;42.748;12.732;2022-12-29T10:58:48;98956.34;;;13.95;77.50
36242;BME280;22283;42.748;12.732;2022-12-29T11:03:58;98947.59;;;14.06;75.49
36242;BME280;22283;42.748;12.732;2022-12-29T11:09:29;98951.72;;;14.21;74.57
36242;BME280;22283;42.748;12.732;2022-12-29T11:14:31;98941.97;;;14.33;74.35
36242;BME280;22283;42.748;12.732;2022-12-29T11:19:33;98938.47;;;14.32;74.16
36242;BME280;22283;42.748;12.732;2022-12-29T11:24:43;98935.16;;;14.17;73.99
36242;BME280;22283;42.748;12.732;2022-12-29T11:29:44;98925.25;;;14.19;74.40
36242;BME280;22283;42.748;12.732;2022-12-29T11:34:46;98914.13;;;14.14;74.15
36242;BME280;22283;42.748;12.732;2022-12-29T11:40:04;98912.38;;;14.13;73.30
36242;BME280;22283;42.748;12.732;2022-12-29T11:45:21;98910.28;;;14.30;73.55
36242;BME280;22283;42.748;12.732;2022-12-29T11:50:26;98905.38;;;14.47;72.99
36242;BME280;22283;42.748;12.732;2022-12-29T11:55:30;98895.47;;;14.61;73.00
36242;BME280;22283;42.748;12.732;2022-12-29T12:00:34;98898.75;;;14.64;72.63
36242;BME280;22283;42.748;12.732;2022-12-29T12:05:55;98896.72;;;14.68;72.66
36242;BME280;22283;42.748;12.732;2022-12-29T12:11:13;98883.91;;;14.73;69.96
36242;BME280;22283;42.748;12.732;2022-12-29T12:16:18;98874.56;;;14.67;71.54
36242;BME280;22283;42.748;12.732;2022-12-29T12:26:38;98881.25;;;14.26;73.05
36242;BME280;22283;42.748;12.732;2022-12-29T12:31:55;98870.81;;;14.23;73.26
36242;BME280;22283;42.748;12.732;2022-12-29T12:42:42;98873.84;;;13.84;74.28
36242;BME280;22283;42.748;12.732;2022-12-29T12:54:20;98864.56;;;13.65;75.90
36242;BME280;22283;42.748;12.732;2022-12-29T12:59:31;98855.72;;;13.89;75.41
36242;BME280;22283;42.748;12.732;2022-12-29T13:30:57;98804.38;;;13.99;73.87
36242;BME280;22283;42.748;12.732;2022-12-29T13:36:08;98793.47;;;13.91;74.30
36242;BME280;22283;42.748;12.732;2022-12-29T13:41:27;98794.44;;;13.90;74.25
36242;BME280;22283;42.748;12.732;2022-12-29T13:46:34;98786.09;;;13.95;73.46
36242;BME280;22283;42.748;12.732;2022-12-29T13:51:41;98786.81;;;13.97;73.43
36242;BME280;22283;42.748;12.732;2022-12-29T13:56:50;98778.78;;;13.74;73.78
36242;BME280;22283;42.748;12.732;2022-12-29T14:03:01;98790.19;;;13.52;74.24
36242;BME280;22283;42.748;12.732;2022-12-29T14:07:38;98785.16;;;13.37;74.49
36242;BME280;22283;42.748;12.732;2022-12-29T14:12:42;98789.47;;;13.26;76.07
36242;BME280;22283;42.748;12.732;2022-12-29T14:17:44;98786.34;;;13.33;76.43
36242;BME280;22283;42.748;12.732;2022-12-29T14:23:01;98786.06;;;13.48;76.24
36242;BME280;22283;42.748;12.732;2022-12-29T14:28:23;98779.16;;;13.46;75.78
36242;BME280;22283;42.748;12.732;2022-12-29T14:33:26;98786.69;;;13.28;75.69
36242;BME280;22283;42.748;12.732;2022-12-29T14:38:28;98792.63;;;12.95;77.76
36242;BME280;22283;42.748;12.732;2022-12-29T14:43:30;98800.84;;;12.79;78.76
36242;BME280;22283;42.748;12.732;2022-12-29T14:48:38;98813.91;;;12.69;79.62
36242;BME280;22283;42.748;12.732;2022-12-29T14:53:50;98800.88;;;12.53;80.89
36242;BME280;22283;42.748;12.732;2022-12-29T14:59:01;98802.81;;;12.51;82.99
36242;BME280;22283;42.748;12.732;2022-12-29T15:04:18;98803.66;;;12.52;83.19
36242;BME280;22283;42.748;12.732;2022-12-29T15:09:33;98807.78;;;12.30;84.82
36242;BME280;22283;42.748;12.732;2022-12-29T15:14:39;98820.09;;;12.06;88.87
36242;BME280;22283;42.748;12.732;2022-12-29T15:19:48;98820.44;;;11.74;88.27
36242;BME280;22283;42.748;12.732;2022-12-29T15:24:53;98807.53;;;11.43;88.84
36242;BME280;22283;42.748;12.732;2022-12-29T15:30:04;98820.84;;;11.28;90.14
36242;BME280;22283;42.748;12.732;2022-12-29T15:35:28;98822.75;;;11.12;91.43
36242;BME280;22283;42.748;12.732;2022-12-29T15:40:31;98814.28;;;10.93;94.39
36242;BME280;22283;42.748;12.732;2022-12-29T15:45:34;98820.75;;;10.74;96.29
36242;BME280;22283;42.748;12.732;2022-12-29T15:50:36;98820.69;;;10.62;96.98
36242;BME280;22283;42.748;12.732;2022-12-29T15:55:39;98824.81;;;10.37;98.24
36242;BME280;22283;42.748;12.732;2022-12-29T16:00:51;98837.91;;;10.24;99.52
36242;BME280;22283;42.748;12.732;2022-12-29T16:05:54;98834.66;;;10.05;100.00
36242;BME280;22283;42.748;12.732;2022-12-29T16:10:55;98828.59;;;9.89;100.00
36242;BME280;22283;42.748;12.732;2022-12-29T16:16:01;98826.19;;;9.70;100.00
36242;BME280;22283;42.748;12.732;2022-12-29T16:21:16;98833.03;;;9.58;100.00
36242;BME280;22283;42.748;12.732;2022-12-29T16:26:20;98839.94;;;9.60;100.00
36242;BME280;22283;42.748;12.732;2022-12-29T16:31:25;98834.69;;;9.45;100.00
36242;BME280;22283;42.748;12.732;2022-12-29T16:36:34;98844.09;;;9.34;100.00
36242;BME280;22283;42.748;12.732;2022-12-29T16:41:40;98838.03;;;9.32;100.00
36242;BME280;22283;42.748;12.732;2022-12-29T16:47:04;98845.53;;;9.24;100.00
36242;BME280;22283;42.748;12.732;2022-12-29T16:52:29;98846.22;;;9.12;100.00
36242;BME280;22283;42.748;12.732;2022-12-29T16:57:35;98843.75;;;9.09;100.00
36242;BME280;22283;42.748;12.732;2022-12-29T17:02:36;98846.38;;;9.09;100.00
36242;BME280;22283;42.748;12.732;2022-12-29T17:07:45;98839.56;;;9.21;100.00
36242;BME280;22283;42.748;12.732;2022-12-29T17:12:47;98846.06;;;9.15;100.00
36242;BME280;22283;42.748;12.732;2022-12-29T17:17:49;98836.09;;;9.04;100.00
36242;BME280;22283;42.748;12.732;2022-12-29T17:22:52;98845.38;;;8.96;100.00
36242;BME280;22283;42.748;12.732;2022-12-29T17:28:20;98844.31;;;8.82;100.00
36242;BME280;22283;42.748;12.732;2022-12-29T17:33:21;98841.59;;;8.68;100.00
36242;BME280;22283;42.748;12.732;2022-12-29T17:38:30;98848.88;;;8.63;100.00
36242;BME280;22283;42.748;12.732;2022-12-29T17:43:31;98843.13;;;8.72;100.00
36242;BME280;22283;42.748;12.732;2022-12-29T17:48:32;98848.59;;;9.01;100.00
36242;BME280;22283;42.748;12.732;2022-12-29T17:53:33;98856.94;;;9.25;100.00
36242;BME280;22283;42.748;12.732;2022-12-29T17:58:33;98854.03;;;9.29;100.00
36242;BME280;22283;42.748;12.732;2022-12-29T18:03:37;98850.53;;;9.45;100.00
36242;BME280;22283;42.748;12.732;2022-12-29T18:08:39;98851.09;;;9.50;100.00
36242;BME280;22283;42.748;12.732;2022-12-29T18:13:40;98852.31;;;9.44;100.00
36242;BME280;22283;42.748;12.732;2022-12-29T18:18:41;98861.47;;;9.39;100.00
36242;BME280;22283;42.748;12.732;2022-12-29T18:23:41;98859.13;;;9.48;100.00
36242;BME280;22283;42.748;12.732;2022-12-29T18:28:42;98862.22;;;9.41;100.00
36242;BME280;22283;42.748;12.732;2022-12-29T18:33:44;98855.72;;;9.30;100.00
36242;BME280;22283;42.748;12.732;2022-12-29T18:38:44;98855.81;;;9.45;100.00
36242;BME280;22283;42.748;12.732;2022-12-29T18:43:45;98850.78;;;9.56;100.00
36242;BME280;22283;42.748;12.732;2022-12-29T18:48:46;98837.63;;;9.70;100.00
36242;BME280;22283;42.748;12.732;2022-12-29T18:53:47;98839.03;;;9.76;100.00
36242;BME280;22283;42.748;12.732;2022-12-29T18:58:49;98832.97;;;9.74;100.00
36242;BME280;22283;42.748;12.732;2022-12-29T19:03:50;98840.16;;;9.72;100.00
36242;BME280;22283;42.748;12.732;2022-12-29T19:08:51;98827.56;;;9.61;100.00
36242;BME280;22283;42.748;12.732;2022-12-29T19:13:52;98825.31;;;9.69;100.00
36242;BME280;22283;42.748;12.732;2022-12-29T19:18:53;98823.91;;;9.64;100.00
36242;BME280;22283;42.748;12.732;2022-12-29T19:23:54;98821.09;;;9.67;100.00
36242;BME280;22283;42.748;12.732;2022-12-29T19:28:54;98824.94;;;9.61;100.00
36242;BME280;22283;42.748;12.732;2022-12-29T19:33:55;98820.94;;;9.54;100.00
36242;BME280;22283;42.748;12.732;2022-12-29T19:38:56;98814.13;;;9.50;100.00
36242;BME280;22283;42.748;12.732;2022-12-29T19:43:56;98809.34;;;9.56;100.00
36242;BME280;22283;42.748;12.732;2022-12-29T19:48:58;98807.31;;;9.46;100.00
36242;BME280;22283;42.748;12.732;2022-12-29T19:53:59;98809.28;;;9.42;100.00
36242;BME280;22283;42.748;12.732;2022-12-29T19:58:59;98811.78;;;9.29;100.00
36242;BME280;22283;42.748;12.732;2022-12-29T20:04:00;98805.34;;;9.19;100.00
36242;BME280;22283;42.748;12.732;2022-12-29T20:09:02;98818.44;;;9.21;100.00
36242;BME280;22283;42.748;12.732;2022-12-29T20:14:02;98819.88;;;9.26;100.00
36242;BME280;22283;42.748;12.732;2022-12-29T20:19:03;98820.06;;;9.23;100.00
36242;BME280;22283;42.748;12.732;2022-12-29T20:24:04;98828.50;;;9.14;100.00
36242;BME280;22283;42.748;12.732;2022-12-29T20:29:05;98825.38;;;8.92;100.00
36242;BME280;22283;42.748;12.732;2022-12-29T20:34:06;98819.47;;;8.86;100.00
36242;BME280;22283;42.748;12.732;2022-12-29T20:39:15;98815.72;;;8.91;100.00
36242;BME280;22283;42.748;12.732;2022-12-29T20:44:17;98815.13;;;8.85;100.00
36242;BME280;22283;42.748;12.732;2022-12-29T20:49:17;98818.56;;;8.88;100.00
36242;BME280;22283;42.748;12.732;2022-12-29T20:54:18;98810.00;;;8.98;100.00
36242;BME280;22283;42.748;12.732;2022-12-29T20:59:19;98807.31;;;9.00;100.00
36242;BME280;22283;42.748;12.732;2022-12-29T21:04:20;98802.78;;;9.02;100.00
36242;BME280;22283;42.748;12.732;2022-12-29T21:09:21;98800.66;;;9.08;100.00
36242;BME280;22283;42.748;12.732;2022-12-29T21:14:22;98798.88;;;9.09;100.00
36242;BME280;22283;42.748;12.732;2022-12-29T21:19:22;98806.88;;;9.23;100.00
36242;BME280;22283;42.748;12.732;2022-12-29T21:24:23;98797.16;;;9.24;100.00
36242;BME280;22283;42.748;12.732;2022-12-29T21:29:24;98805.94;;;9.24;100.00
36242;BME280;22283;42.748;12.732;2022-12-29T21:34:26;98809.84;;;9.17;100.00
36242;BME280;22283;42.748;12.732;2022-12-29T21:39:26;98803.88;;;9.14;100.00
36242;BME280;22283;42.748;12.732;2022-12-29T21:44:27;98805.09;;;9.08;100.00
36242;BME280;22283;42.748;12.732;2022-12-29T21:49:46;98813.25;;;9.19;100.00
36242;BME280;22283;42.748;12.732;2022-12-29T21:54:47;98818.81;;;9.15;100.00
36242;BME280;22283;42.748;12.732;2022-12-29T21:59:59;98820.25;;;9.20;100.00
36242;BME280;22283;42.748;12.732;2022-12-29T22:05:19;98815.88;;;9.35;99.49
36242;BME280;22283;42.748;12.732;2022-12-29T22:10:40;98817.72;;;9.49;97.82
36242;BME280;22283;42.748;12.732;2022-12-29T22:16:05;98815.47;;;9.57;96.65
36242;BME280;22283;42.748;12.732;2022-12-29T22:21:08;98803.16;;;9.72;94.85
36242;BME280;22283;42.748;12.732;2022-12-29T22:26:11;98803.06;;;9.73;93.75
36242;BME280;22283;42.748;12.732;2022-12-29T22:31:23;98789.50;;;9.79;92.66
36242;BME280;22283;42.748;12.732;2022-12-29T22:36:27;98782.72;;;9.75;92.56
36242;BME280;22283;42.748;12.732;2022-12-29T22:41:28;98770.13;;;9.65;93.46
36242;BME280;22283;42.748;12.732;2022-12-29T22:46:28;98765.38;;;9.55;93.80
36242;BME280;22283;42.748;12.732;2022-12-29T22:51:29;98759.72;;;9.61;93.34
36242;BME280;22283;42.748;12.732;2022-12-29T22:56:29;98765.72;;;9.49;94.03
36242;BME280;22283;42.748;12.732;2022-12-29T23:01:30;98781.91;;;9.59;93.41
36242;BME280;22283;42.748;12.732;2022-12-29T23:06:31;98795.75;;;9.48;94.11
36242;BME280;22283;42.748;12.732;2022-12-29T23:11:32;98801.69;;;9.52;94.53
36242;BME280;22283;42.748;12.732;2022-12-29T23:16:33;98786.03;;;9.49;94.52
36242;BME280;22283;42.748;12.732;2022-12-29T23:21:33;98788.25;;;9.41;94.00
36242;BME280;22283;42.748;12.732;2022-12-29T23:26:37;98777.88;;;9.38;94.26
36242;BME280;22283;42.748;12.732;2022-12-29T23:31:38;98766.31;;;9.24;94.72
36242;BME280;22283;42.748;12.732;2022-12-29T23:36:39;98760.22;;;9.08;96.27
36242;BME280;22283;42.748;12.732;2022-12-29T23:41:40;98760.81;;;8.81;97.96
36242;BME280;22283;42.748;12.732;2022-12-29T23:46:41;98754.28;;;8.73;98.41
36242;BME280;22283;42.748;12.732;2022-12-29T23:51:41;98752.91;;;8.81;96.66
36242;BME280;22283;42.748;12.732;2022-12-29T23:56:42;98749.28;;;9.14;92.46
